createdAt,value
2023-08-15T00:01:44.543Z,99.90
2023-08-15T00:04:11.166Z,99.90
2023-08-15T00:06:37.770Z,99.90
2023-08-15T00:09:04.668Z,99.90
2023-08-15T00:11:31.442Z,99.90
2023-08-15T00:13:58.252Z,99.90
2023-08-15T00:16:25.564Z,99.90
2023-08-15T00:18:52.292Z,99.90
2023-08-15T00:21:18.932Z,99.90
2023-08-15T00:23:45.626Z,99.90
2023-08-15T00:26:12.306Z,99.90
2023-08-15T00:28:38.973Z,99.90
2023-08-15T00:31:05.699Z,99.90
2023-08-15T00:33:32.373Z,99.90
2023-08-15T00:35:59.047Z,99.90
2023-08-15T00:38:25.701Z,99.90
2023-08-15T00:40:52.422Z,99.90
2023-08-15T00:43:20.103Z,99.90
2023-08-15T00:45:47.353Z,99.90
2023-08-15T00:48:14.260Z,99.90
2023-08-15T00:50:43.013Z,99.90
2023-08-15T00:53:12.002Z,99.90
2023-08-15T00:55:39.494Z,99.90
2023-08-15T00:58:06.694Z,99.90
2023-08-15T01:00:33.556Z,99.90
2023-08-15T01:03:00.704Z,99.90
2023-08-15T01:05:29.925Z,99.90
2023-08-15T01:07:57.089Z,99.90
2023-08-15T01:10:23.891Z,99.90
2023-08-15T01:13:18.156Z,99.90
2023-08-15T01:15:50.837Z,99.90
2023-08-15T01:18:21.987Z,99.90
2023-08-15T01:20:50.477Z,99.90
2023-08-15T01:23:24.515Z,99.90
2023-08-15T01:25:54.988Z,99.90
2023-08-15T01:28:22.099Z,99.90
2023-08-15T01:30:59.035Z,99.90
2023-08-15T01:33:39.973Z,99.90
2023-08-15T01:36:12.927Z,99.90
2023-08-15T01:39:01.310Z,99.90
2023-08-15T01:41:32.119Z,99.90
2023-08-15T01:44:00.198Z,99.90
2023-08-15T01:46:27.044Z,99.90
2023-08-15T01:48:53.656Z,99.90
2023-08-15T01:51:20.273Z,99.90
2023-08-15T01:53:47.057Z,99.90
2023-08-15T01:56:14.193Z,99.90
2023-08-15T01:58:40.856Z,99.90
2023-08-15T02:01:07.627Z,99.90
2023-08-15T02:03:34.306Z,99.90
2023-08-15T02:06:01.025Z,99.90
2023-08-15T02:08:27.734Z,99.90
2023-08-15T02:10:54.453Z,99.90
2023-08-15T02:13:21.118Z,99.90
2023-08-15T02:15:47.888Z,99.90
2023-08-15T02:18:14.582Z,99.90
2023-08-15T02:20:41.235Z,99.90
2023-08-15T02:23:07.836Z,99.90
2023-08-15T02:25:34.715Z,99.90
2023-08-15T02:28:01.694Z,99.90
2023-08-15T02:30:28.605Z,99.90
2023-08-15T02:32:55.258Z,99.90
2023-08-15T02:35:21.924Z,99.90
2023-08-15T02:37:48.605Z,99.90
2023-08-15T02:40:15.280Z,99.90
2023-08-15T02:42:41.974Z,99.90
2023-08-15T02:45:09.070Z,99.90
2023-08-15T02:47:35.799Z,99.90
2023-08-15T02:50:02.701Z,99.90
2023-08-15T02:52:29.310Z,99.90
2023-08-15T02:54:55.944Z,99.90
2023-08-15T02:57:22.734Z,99.90
2023-08-15T02:59:49.716Z,99.90
2023-08-15T03:02:17.365Z,99.90
2023-08-15T03:04:44.074Z,99.90
2023-08-15T03:07:10.712Z,99.90
2023-08-15T03:09:37.355Z,99.90
2023-08-15T03:12:04.473Z,99.90
2023-08-15T03:14:31.201Z,99.90
2023-08-15T03:16:57.902Z,99.90
2023-08-15T03:19:24.577Z,99.90
2023-08-15T03:21:51.515Z,99.90
2023-08-15T03:24:18.237Z,99.90
2023-08-15T03:26:44.857Z,99.90
2023-08-15T03:29:11.788Z,99.90
2023-08-15T03:31:38.447Z,99.90
2023-08-15T03:34:05.180Z,99.90
2023-08-15T03:36:31.886Z,99.90
2023-08-15T03:38:58.528Z,99.90
2023-08-15T03:41:25.127Z,99.90
2023-08-15T03:43:51.747Z,99.90
2023-08-15T03:46:20.144Z,99.90
2023-08-15T03:48:46.906Z,99.90
2023-08-15T03:51:19.022Z,99.90
2023-08-15T03:53:54.394Z,99.90
2023-08-15T03:56:21.018Z,99.90
2023-08-15T03:58:47.668Z,99.90
2023-08-15T04:01:14.359Z,99.90
2023-08-15T04:03:41.437Z,99.90
2023-08-15T04:06:08.408Z,99.90
2023-08-15T04:08:35.613Z,99.90
2023-08-15T04:11:02.223Z,99.90
2023-08-15T04:13:28.919Z,99.90
2023-08-15T04:15:55.755Z,99.90
2023-08-15T04:18:22.458Z,99.90
2023-08-15T04:20:49.174Z,99.90
2023-08-15T04:23:15.817Z,99.90
2023-08-15T04:25:42.830Z,99.90
2023-08-15T04:28:09.493Z,99.90
2023-08-15T04:30:36.335Z,99.90
2023-08-15T04:33:03.142Z,99.90
2023-08-15T04:35:30.339Z,99.90
2023-08-15T04:37:57.317Z,99.90
2023-08-15T04:40:32.957Z,99.90
2023-08-15T04:42:59.717Z,99.90
2023-08-15T04:45:26.408Z,99.90
2023-08-15T04:47:53.362Z,99.90
2023-08-15T04:50:19.994Z,99.90
2023-08-15T04:52:46.603Z,99.90
2023-08-15T04:55:14.282Z,99.90
2023-08-15T04:57:41.721Z,99.90
2023-08-15T05:00:12.903Z,99.90
2023-08-15T05:02:40.229Z,99.90
2023-08-15T05:05:07.938Z,99.90
2023-08-15T05:07:34.687Z,99.90
2023-08-15T05:10:01.316Z,99.90
2023-08-15T05:12:27.975Z,99.90
2023-08-15T05:14:54.596Z,99.90
2023-08-15T05:17:21.449Z,99.90
2023-08-15T05:19:48.272Z,99.90
2023-08-15T05:22:14.921Z,99.90
2023-08-15T05:24:41.568Z,99.90
2023-08-15T05:27:12.132Z,99.90
2023-08-15T05:29:38.792Z,99.90
2023-08-15T05:32:06.094Z,99.90
2023-08-15T05:34:32.708Z,99.90
2023-08-15T05:36:59.342Z,99.90
2023-08-15T05:39:25.982Z,99.90
2023-08-15T05:41:52.817Z,99.90
2023-08-15T05:44:19.448Z,99.90
2023-08-15T05:46:46.179Z,99.90
2023-08-15T05:49:12.816Z,99.90
2023-08-15T05:51:39.429Z,99.90
2023-08-15T05:54:06.087Z,99.90
2023-08-15T05:56:32.691Z,99.90
2023-08-15T05:58:59.532Z,99.90
2023-08-15T06:01:26.207Z,99.90
2023-08-15T06:03:53.479Z,99.90
2023-08-15T06:06:22.194Z,99.90
2023-08-15T06:08:49.359Z,99.90
2023-08-15T06:11:16.553Z,99.90
2023-08-15T06:13:43.208Z,99.90
2023-08-15T06:16:11.926Z,99.90
2023-08-15T06:18:40.154Z,99.90
2023-08-15T06:21:06.773Z,99.90
2023-08-15T06:23:33.452Z,99.90
2023-08-15T06:26:00.163Z,99.90
2023-08-15T06:28:26.924Z,99.90
2023-08-15T06:30:53.629Z,99.90
2023-08-15T06:33:20.280Z,99.90
2023-08-15T06:35:46.909Z,99.90
2023-08-15T06:38:13.663Z,99.90
2023-08-15T06:40:40.879Z,99.90
2023-08-15T06:43:07.617Z,99.90
2023-08-15T06:45:37.520Z,99.90
2023-08-15T06:48:06.454Z,99.90
2023-08-15T06:50:34.058Z,99.90
2023-08-15T06:53:00.807Z,99.90
2023-08-15T06:55:27.454Z,99.90
2023-08-15T06:57:54.952Z,99.90
2023-08-15T07:00:21.864Z,99.90
2023-08-15T07:02:48.734Z,99.90
2023-08-15T07:05:15.628Z,99.90
2023-08-15T07:07:42.388Z,99.90
2023-08-15T07:10:11.230Z,99.90
2023-08-15T07:12:37.946Z,99.90
2023-08-15T07:15:05.195Z,99.90
2023-08-15T07:17:31.876Z,99.90
2023-08-15T07:19:58.847Z,99.90
2023-08-15T07:22:25.432Z,99.90
2023-08-15T07:24:52.179Z,99.90
2023-08-15T07:27:18.887Z,99.90
2023-08-15T07:29:45.964Z,99.90
2023-08-15T07:32:13.761Z,99.90
2023-08-15T07:34:40.711Z,99.90
2023-08-15T07:37:07.353Z,99.90
2023-08-15T07:39:34.025Z,99.90
2023-08-15T07:42:00.972Z,99.90
2023-08-15T07:44:28.576Z,99.90
2023-08-15T07:46:55.282Z,99.90
2023-08-15T07:49:21.970Z,99.90
2023-08-15T07:51:48.870Z,99.90
2023-08-15T07:54:16.220Z,99.90
2023-08-15T07:56:42.938Z,99.90
2023-08-15T07:59:09.930Z,99.90
2023-08-15T08:01:36.588Z,99.90
2023-08-15T08:04:03.391Z,99.90
2023-08-15T08:09:00.183Z,99.90
2023-08-15T08:11:27.108Z,99.90
2023-08-15T08:13:53.957Z,99.90
2023-08-15T08:16:22.652Z,99.90
2023-08-15T08:18:49.689Z,99.90
2023-08-15T08:21:16.856Z,99.90
2023-08-15T08:23:43.506Z,99.90
2023-08-15T08:26:10.887Z,99.90
2023-08-15T08:28:37.508Z,99.90
2023-08-15T08:31:04.444Z,99.90
2023-08-15T08:33:31.159Z,99.90
2023-08-15T08:35:57.809Z,99.90
2023-08-15T08:38:27.978Z,99.90
2023-08-15T08:40:56.549Z,99.90
2023-08-15T08:43:23.846Z,99.90
2023-08-15T08:45:54.278Z,99.90
2023-08-15T08:48:23.255Z,99.90
2023-08-15T08:50:50.225Z,99.90
2023-08-15T08:53:17.016Z,99.90
2023-08-15T08:55:48.705Z,99.90
2023-08-15T08:58:15.690Z,99.90
2023-08-15T09:00:42.822Z,99.90
2023-08-15T09:03:10.779Z,99.90
2023-08-15T09:05:37.991Z,99.90
2023-08-15T09:08:05.546Z,99.90
2023-08-15T09:10:32.262Z,99.90
2023-08-15T09:13:00.526Z,99.90
2023-08-15T09:15:27.848Z,99.90
2023-08-15T09:18:00.275Z,99.90
2023-08-15T09:20:27.075Z,98.70
2023-08-15T09:22:57.556Z,97.20
2023-08-15T09:25:26.848Z,95.40
2023-08-15T09:27:54.861Z,92.40
2023-08-15T09:30:22.567Z,93.00
2023-08-15T09:32:49.566Z,91.50
2023-08-15T09:35:18.935Z,92.80
2023-08-15T09:37:48.223Z,90.00
2023-08-15T09:40:18.755Z,85.80
2023-08-15T09:42:46.561Z,87.80
2023-08-15T09:45:14.231Z,83.40
2023-08-15T09:47:41.514Z,84.00
2023-08-15T09:50:09.950Z,84.10
2023-08-15T09:52:40.166Z,84.80
2023-08-15T09:55:11.218Z,82.60
2023-08-15T09:57:38.818Z,90.40
2023-08-15T10:00:10.524Z,83.70
2023-08-15T10:02:44.423Z,81.10
2023-08-15T10:05:13.103Z,81.10
2023-08-15T10:07:42.386Z,82.60
2023-08-15T10:10:10.187Z,85.50
2023-08-15T10:12:38.960Z,80.10
2023-08-15T10:15:08.089Z,82.10
2023-08-15T10:17:35.412Z,83.40
2023-08-15T10:20:07.405Z,84.10
2023-08-15T10:22:35.345Z,90.00
2023-08-15T10:25:24.017Z,90.20
2023-08-15T10:27:52.757Z,92.60
2023-08-15T10:30:44.778Z,95.80
2023-08-15T10:33:18.148Z,91.90
2023-08-15T10:35:50.889Z,91.50
2023-08-15T10:38:20.113Z,91.70
2023-08-15T10:40:47.261Z,92.20
2023-08-15T10:43:16.706Z,90.90
2023-08-15T10:45:56.313Z,89.10
2023-08-15T10:51:32.686Z,88.30
2023-08-15T10:54:02.162Z,88.70
2023-08-15T10:56:33.822Z,92.00
2023-08-15T10:59:06.152Z,86.60
2023-08-15T11:01:33.065Z,86.20
2023-08-15T11:04:00.573Z,86.50
2023-08-15T11:06:27.198Z,87.80
2023-08-15T11:08:56.580Z,89.30
2023-08-15T11:11:23.772Z,85.40
2023-08-15T11:13:52.525Z,84.50
2023-08-15T11:16:21.431Z,91.90
2023-08-15T11:18:49.788Z,90.30
2023-08-15T11:21:18.153Z,84.70
2023-08-15T11:23:47.590Z,80.70
2023-08-15T11:26:16.051Z,83.20
2023-08-15T11:28:43.062Z,79.30
2023-08-15T11:31:22.060Z,84.10
2023-08-15T11:33:51.331Z,86.70
2023-08-15T11:36:18.565Z,86.10
2023-08-15T11:38:45.213Z,88.30
2023-08-15T11:41:12.133Z,92.70
2023-08-15T11:43:39.184Z,93.00
2023-08-15T11:46:07.191Z,93.10
2023-08-15T11:48:35.108Z,93.70
2023-08-15T11:51:06.637Z,92.80
2023-08-15T11:53:33.403Z,93.60
2023-08-15T11:56:00.260Z,93.20
2023-08-15T11:58:35.936Z,93.10
2023-08-15T12:01:08.481Z,95.20
2023-08-15T12:03:35.809Z,94.50
2023-08-15T12:06:06.920Z,94.50
2023-08-15T12:08:34.102Z,93.20
2023-08-15T12:11:11.450Z,94.00
2023-08-15T12:13:42.266Z,93.90
2023-08-15T12:16:11.616Z,91.90
2023-08-15T12:18:40.269Z,91.40
2023-08-15T12:21:09.858Z,92.30
2023-08-15T12:23:38.305Z,92.80
2023-08-15T12:26:04.895Z,92.50
2023-08-15T12:28:31.637Z,92.30
2023-08-15T12:30:58.271Z,94.40
2023-08-15T12:35:54.921Z,91.20
2023-08-15T12:38:21.634Z,91.70
2023-08-15T12:40:48.407Z,95.00
2023-08-15T12:43:15.178Z,91.80
2023-08-15T12:45:41.888Z,90.60
2023-08-15T12:48:08.628Z,91.30
2023-08-15T12:50:35.314Z,92.40
2023-08-15T12:53:02.012Z,94.20
2023-08-15T12:55:28.627Z,93.00
2023-08-15T12:57:55.352Z,95.70
2023-08-15T13:00:22.366Z,92.20
2023-08-15T13:02:49.252Z,91.60
2023-08-15T13:05:16.016Z,93.30
2023-08-15T13:07:42.744Z,94.90
2023-08-15T13:10:09.533Z,94.30
2023-08-15T13:12:36.198Z,95.10
2023-08-15T13:15:06.101Z,95.00
2023-08-15T13:17:33.014Z,96.70
2023-08-15T13:19:59.669Z,95.50
2023-08-15T13:22:26.302Z,97.10
2023-08-15T13:24:52.935Z,97.00
2023-08-15T13:27:19.881Z,97.70
2023-08-15T13:29:46.599Z,96.20
2023-08-15T13:32:13.232Z,96.50
2023-08-15T13:34:39.853Z,96.90
2023-08-15T13:37:06.769Z,97.90
2023-08-15T13:39:33.384Z,97.10
2023-08-15T13:41:59.984Z,96.00
2023-08-15T13:44:26.841Z,96.30
2023-08-15T13:46:53.627Z,95.20
2023-08-15T13:49:20.373Z,95.50
2023-08-15T13:51:47.251Z,95.60
2023-08-15T13:54:13.928Z,97.30
2023-08-15T13:56:40.569Z,98.30
2023-08-15T13:59:07.253Z,96.90
2023-08-15T14:01:34.401Z,97.20
2023-08-15T14:04:01.120Z,95.60
2023-08-15T14:06:29.488Z,95.60
2023-08-15T14:08:56.218Z,98.50
2023-08-15T14:11:23.018Z,96.30
2023-08-15T14:13:49.692Z,96.80
2023-08-15T14:16:16.312Z,97.60
2023-08-15T14:18:43.104Z,98.20
2023-08-15T14:21:14.340Z,98.60
2023-08-15T14:23:45.173Z,99.90
2023-08-15T14:26:12.170Z,99.50
2023-08-15T14:28:38.997Z,99.90
2023-08-15T14:31:06.550Z,99.90
2023-08-15T14:33:33.451Z,99.90
2023-08-15T14:36:00.194Z,99.90
2023-08-15T14:38:27.026Z,99.90
2023-08-15T14:40:53.823Z,99.90
2023-08-15T14:43:20.496Z,99.90
2023-08-15T14:45:47.185Z,99.90
2023-08-15T14:48:13.934Z,99.90
2023-08-15T14:50:41.197Z,99.90
2023-08-15T14:53:08.002Z,99.90
2023-08-15T14:55:34.775Z,99.90
2023-08-15T14:58:02.428Z,99.90
2023-08-15T15:00:29.100Z,99.90
2023-08-15T15:02:55.841Z,99.90
2023-08-15T15:05:23.551Z,99.90
2023-08-15T15:07:50.528Z,99.90
2023-08-15T15:10:17.264Z,99.90
2023-08-15T15:12:45.789Z,99.90
2023-08-15T15:15:12.594Z,99.90
2023-08-15T15:17:39.640Z,99.90
2023-08-15T15:20:07.959Z,99.90
2023-08-15T15:22:34.697Z,99.90
2023-08-15T15:25:01.507Z,99.90
2023-08-15T15:27:28.188Z,99.90
2023-08-15T15:29:54.900Z,99.90
2023-08-15T15:32:21.745Z,99.90
2023-08-15T15:34:48.561Z,99.90
2023-08-15T15:37:15.179Z,99.90
2023-08-15T15:39:41.824Z,99.90
2023-08-15T15:42:08.575Z,99.90
2023-08-15T15:44:35.409Z,99.90
2023-08-15T15:47:02.876Z,99.90
2023-08-15T15:49:29.616Z,99.90
2023-08-15T15:51:56.419Z,99.90
2023-08-15T15:54:23.052Z,99.90
2023-08-15T15:56:49.715Z,99.90
2023-08-15T15:59:17.441Z,99.90
2023-08-15T16:01:44.154Z,99.90
2023-08-15T16:04:10.902Z,99.90
2023-08-15T16:06:37.576Z,99.90
2023-08-15T16:09:04.278Z,99.90
2023-08-15T16:11:31.315Z,99.90
2023-08-15T16:13:57.931Z,99.90
2023-08-15T16:16:24.658Z,99.90
2023-08-15T16:18:51.486Z,99.90
2023-08-15T16:21:20.213Z,99.90
2023-08-15T16:23:49.457Z,99.90
2023-08-15T16:26:16.066Z,99.90
2023-08-15T16:28:44.810Z,99.90
2023-08-15T16:31:11.657Z,99.90
2023-08-15T16:33:38.333Z,99.90
2023-08-15T16:36:05.090Z,99.90
2023-08-15T16:38:31.966Z,99.90
2023-08-15T16:40:58.560Z,99.90
2023-08-15T16:43:27.950Z,99.90
2023-08-15T16:45:54.526Z,99.90
2023-08-15T16:48:21.229Z,99.90
2023-08-15T16:50:47.861Z,99.90
2023-08-15T16:53:14.527Z,99.90
2023-08-15T16:55:41.196Z,99.90
2023-08-15T16:58:07.783Z,99.90
2023-08-15T17:00:34.417Z,99.90
2023-08-15T17:03:01.220Z,99.90
2023-08-15T17:05:28.243Z,99.90
2023-08-15T17:07:54.936Z,99.90
2023-08-15T17:10:21.753Z,99.90
2023-08-15T17:12:48.559Z,99.90
2023-08-15T17:15:16.546Z,99.90
2023-08-15T17:17:43.781Z,99.90
2023-08-15T17:20:11.348Z,99.90
2023-08-15T17:22:38.319Z,99.90
2023-08-15T17:25:05.562Z,99.90
2023-08-15T17:27:32.395Z,99.90
2023-08-15T17:29:59.269Z,99.90
2023-08-15T17:32:26.313Z,99.90
2023-08-15T17:34:53.442Z,99.90
2023-08-15T17:37:20.152Z,99.90
2023-08-15T17:39:46.970Z,99.90
2023-08-15T17:42:13.582Z,99.90
2023-08-15T17:44:40.195Z,99.90
2023-08-15T17:47:07.256Z,99.90
2023-08-15T17:49:33.902Z,99.90
2023-08-15T17:52:00.782Z,99.90
2023-08-15T17:54:28.456Z,99.90
2023-08-15T17:56:55.076Z,99.90
2023-08-15T17:59:21.728Z,99.90
2023-08-15T18:01:48.674Z,99.90
2023-08-15T18:04:15.580Z,99.90
2023-08-15T18:06:42.403Z,99.90
2023-08-15T18:09:10.467Z,99.90
2023-08-15T18:11:37.126Z,99.90
2023-08-15T18:14:05.192Z,99.90
2023-08-15T18:16:32.126Z,99.90
2023-08-15T18:18:59.096Z,99.90
2023-08-15T18:21:25.885Z,99.90
2023-08-15T18:23:52.643Z,99.90
2023-08-15T18:26:19.254Z,99.90
2023-08-15T18:28:45.944Z,99.90
2023-08-15T18:31:12.629Z,99.90
2023-08-15T18:33:39.526Z,99.90
2023-08-15T18:36:06.546Z,99.90
2023-08-15T18:38:33.671Z,99.90
2023-08-15T18:41:00.472Z,99.90
2023-08-15T18:43:27.078Z,99.90
2023-08-15T18:45:53.773Z,99.90
2023-08-15T18:48:21.427Z,99.90
2023-08-15T18:50:48.409Z,99.90
2023-08-15T18:53:15.025Z,99.90
2023-08-15T18:55:42.457Z,99.90
2023-08-15T18:58:10.808Z,99.90
2023-08-15T19:00:39.017Z,99.90
2023-08-15T19:03:06.614Z,99.90
2023-08-15T19:05:33.469Z,99.90
2023-08-15T19:08:00.751Z,99.90
2023-08-15T19:10:28.052Z,99.90
2023-08-15T19:12:54.947Z,99.90
2023-08-15T19:15:22.452Z,99.90
2023-08-15T19:17:50.017Z,99.90
2023-08-15T19:20:22.251Z,99.90
2023-08-15T19:22:49.128Z,99.90
2023-08-15T19:25:16.698Z,99.90
2023-08-15T19:27:43.716Z,99.90
2023-08-15T19:30:10.715Z,99.90
2023-08-15T19:32:37.386Z,99.90
2023-08-15T19:35:05.216Z,99.90
2023-08-15T19:37:37.884Z,99.90
2023-08-15T19:40:09.708Z,99.90
2023-08-15T19:42:42.523Z,99.90
2023-08-15T19:45:10.958Z,99.90
2023-08-15T19:47:38.693Z,99.90
2023-08-15T19:50:06.377Z,99.90
2023-08-15T19:52:34.503Z,99.90
2023-08-15T19:55:01.787Z,99.90
2023-08-15T19:57:28.392Z,99.90
2023-08-15T19:59:55.062Z,99.90
2023-08-15T20:02:22.140Z,99.90
2023-08-15T20:04:49.974Z,99.90
2023-08-15T20:07:18.280Z,99.90
2023-08-15T20:09:55.039Z,99.90
2023-08-15T20:12:26.302Z,99.90
2023-08-15T20:14:52.937Z,99.90
2023-08-15T20:17:19.621Z,99.90
2023-08-15T20:19:46.317Z,99.90
2023-08-15T20:22:12.947Z,99.90
2023-08-15T20:24:39.662Z,99.90
2023-08-15T20:27:06.318Z,99.90
2023-08-15T20:29:35.454Z,99.90
2023-08-15T20:32:02.770Z,99.90
2023-08-15T20:34:29.611Z,99.90
2023-08-15T20:36:56.287Z,99.90
2023-08-15T20:39:22.920Z,99.90
2023-08-15T20:41:49.634Z,99.90
2023-08-15T20:44:16.944Z,99.90
2023-08-15T20:46:44.773Z,99.90
2023-08-15T20:49:11.519Z,99.90
2023-08-15T20:51:38.120Z,99.90
2023-08-15T20:54:04.900Z,99.90
2023-08-15T20:56:31.742Z,99.90
2023-08-15T20:58:58.368Z,99.90
2023-08-15T21:01:25.177Z,99.90
2023-08-15T21:03:52.798Z,99.90
2023-08-15T21:06:19.737Z,99.90
2023-08-15T21:08:47.323Z,99.90
2023-08-15T21:11:14.068Z,99.90
2023-08-15T21:13:40.700Z,99.90
2023-08-15T21:16:07.313Z,99.90
2023-08-15T21:18:34.011Z,99.90
2023-08-15T21:21:00.703Z,99.90
2023-08-15T21:23:28.133Z,99.90
2023-08-15T21:25:56.212Z,99.90
2023-08-15T21:28:22.871Z,99.90
2023-08-15T21:30:54.163Z,99.90
2023-08-15T21:33:21.516Z,99.90
2023-08-15T21:35:52.507Z,99.90
2023-08-15T21:38:20.174Z,99.90
2023-08-15T21:40:48.836Z,99.90
2023-08-15T21:43:15.788Z,99.90
2023-08-15T21:45:46.106Z,99.90
2023-08-15T21:48:13.182Z,99.90
2023-08-15T21:50:39.854Z,99.90
2023-08-15T21:53:07.046Z,99.90
2023-08-15T21:55:34.021Z,99.90
2023-08-15T21:58:00.702Z,99.90
2023-08-15T22:00:28.251Z,99.90
2023-08-15T22:02:57.691Z,99.90
2023-08-15T22:05:25.917Z,99.90
2023-08-15T22:07:53.355Z,99.90
2023-08-15T22:10:21.480Z,99.90
2023-08-15T22:12:49.758Z,99.90
2023-08-15T22:15:17.602Z,99.90
2023-08-15T22:17:46.801Z,99.90
2023-08-15T22:20:15.043Z,99.90
2023-08-15T22:22:42.823Z,99.90
2023-08-15T22:25:09.529Z,99.90
2023-08-15T22:27:36.561Z,99.90
2023-08-15T22:30:04.169Z,99.90
2023-08-15T22:32:30.906Z,99.90
2023-08-15T22:34:57.570Z,99.90
2023-08-15T22:37:24.612Z,99.90
2023-08-15T22:39:51.674Z,99.90
2023-08-15T22:42:18.534Z,99.90
2023-08-15T22:44:45.387Z,99.90
2023-08-15T22:47:12.098Z,99.90
2023-08-15T22:49:38.842Z,99.90
2023-08-15T22:52:05.464Z,99.90
2023-08-15T22:54:33.230Z,99.90
2023-08-15T22:56:59.870Z,99.90
2023-08-15T22:59:26.474Z,99.90
2023-08-15T23:01:53.102Z,99.90
2023-08-15T23:04:19.788Z,99.90
2023-08-15T23:06:47.050Z,99.90
2023-08-15T23:09:13.734Z,99.90
2023-08-15T23:11:43.246Z,99.90
2023-08-15T23:14:09.880Z,99.90
2023-08-15T23:16:36.603Z,99.90
2023-08-15T23:19:03.235Z,99.90
2023-08-15T23:21:29.889Z,99.90
2023-08-15T23:23:56.500Z,99.90
2023-08-15T23:26:23.127Z,99.90
2023-08-15T23:28:49.748Z,99.90
2023-08-15T23:31:17.092Z,99.90
2023-08-15T23:33:47.189Z,99.90
2023-08-15T23:36:13.835Z,99.90
2023-08-15T23:38:40.512Z,99.90
2023-08-15T23:41:08.722Z,99.90
2023-08-15T23:43:35.313Z,99.90
2023-08-15T23:46:02.022Z,99.90
2023-08-15T23:48:28.889Z,99.90
2023-08-15T23:50:55.554Z,99.90
2023-08-15T23:53:22.188Z,99.90
2023-08-15T23:55:48.875Z,99.90
2023-08-15T23:58:15.505Z,99.90
